sensor_id;sensor_type;location;lat;lon;timestamp;P1;durP1;ratioP1;P2;durP2;ratioP2
20040;SDS011;10181;48.072;9.884;2023-11-21T00:02:24;2.23;;;0.77;;
20040;SDS011;10181;48.072;9.884;2023-11-21T00:04:50;0.97;;;0.80;;
20040;SDS011;10181;48.072;9.884;2023-11-21T00:07:17;2.37;;;1.10;;
20040;SDS011;10181;48.072;9.884;2023-11-21T00:09:42;2.97;;;0.90;;
20040;SDS011;10181;48.072;9.884;2023-11-21T00:12:08;0.67;;;0.67;;
20040;SDS011;10181;48.072;9.884;2023-11-21T00:14:39;2.57;;;1.30;;
20040;SDS011;10181;48.072;9.884;2023-11-21T00:17:05;2.10;;;1.00;;
20040;SDS011;10181;48.072;9.884;2023-11-21T00:19:31;1.13;;;0.80;;
20040;SDS011;10181;48.072;9.884;2023-11-21T00:21:58;2.37;;;1.07;;
20040;SDS011;10181;48.072;9.884;2023-11-21T00:24:24;1.67;;;0.67;;
20040;SDS011;10181;48.072;9.884;2023-11-21T00:26:50;0.67;;;0.67;;
20040;SDS011;10181;48.072;9.884;2023-11-21T00:29:16;2.67;;;1.10;;
20040;SDS011;10181;48.072;9.884;2023-11-21T00:31:43;1.30;;;1.13;;
20040;SDS011;10181;48.072;9.884;2023-11-21T00:34:09;2.13;;;0.73;;
20040;SDS011;10181;48.072;9.884;2023-11-21T00:36:36;2.00;;;1.03;;
20040;SDS011;10181;48.072;9.884;2023-11-21T00:39:01;1.17;;;0.90;;
20040;SDS011;10181;48.072;9.884;2023-11-21T00:41:27;2.00;;;0.80;;
20040;SDS011;10181;48.072;9.884;2023-11-21T00:43:53;2.83;;;0.70;;
20040;SDS011;10181;48.072;9.884;2023-11-21T00:46:20;0.80;;;0.80;;
20040;SDS011;10181;48.072;9.884;2023-11-21T00:48:46;1.23;;;0.97;;
20040;SDS011;10181;48.072;9.884;2023-11-21T00:51:11;0.80;;;0.80;;
20040;SDS011;10181;48.072;9.884;2023-11-21T00:53:37;0.80;;;0.80;;
20040;SDS011;10181;48.072;9.884;2023-11-21T00:56:05;3.77;;;1.00;;
20040;SDS011;10181;48.072;9.884;2023-11-21T00:58:33;0.83;;;0.80;;
20040;SDS011;10181;48.072;9.884;2023-11-21T01:00:59;1.90;;;1.03;;
20040;SDS011;10181;48.072;9.884;2023-11-21T01:03:24;0.70;;;0.70;;
20040;SDS011;10181;48.072;9.884;2023-11-21T01:05:50;1.50;;;0.90;;
20040;SDS011;10181;48.072;9.884;2023-11-21T01:08:16;1.90;;;0.87;;
20040;SDS011;10181;48.072;9.884;2023-11-21T01:10:41;1.10;;;1.00;;
20040;SDS011;10181;48.072;9.884;2023-11-21T01:13:07;0.60;;;0.60;;
20040;SDS011;10181;48.072;9.884;2023-11-21T01:15:36;1.30;;;1.00;;
20040;SDS011;10181;48.072;9.884;2023-11-21T01:18:04;2.90;;;1.33;;
20040;SDS011;10181;48.072;9.884;2023-11-21T01:20:30;3.70;;;1.03;;
20040;SDS011;10181;48.072;9.884;2023-11-21T01:22:55;1.17;;;0.50;;
20040;SDS011;10181;48.072;9.884;2023-11-21T01:25:30;1.30;;;0.87;;
20040;SDS011;10181;48.072;9.884;2023-11-21T01:27:55;3.00;;;1.00;;
20040;SDS011;10181;48.072;9.884;2023-11-21T01:30:21;0.60;;;0.60;;
20040;SDS011;10181;48.072;9.884;2023-11-21T01:32:47;1.60;;;0.97;;
20040;SDS011;10181;48.072;9.884;2023-11-21T01:35:12;2.30;;;0.87;;
20040;SDS011;10181;48.072;9.884;2023-11-21T01:37:38;1.47;;;1.03;;
20040;SDS011;10181;48.072;9.884;2023-11-21T01:40:04;1.10;;;0.90;;
20040;SDS011;10181;48.072;9.884;2023-11-21T01:42:36;1.30;;;1.03;;
20040;SDS011;10181;48.072;9.884;2023-11-21T01:45:02;0.60;;;0.60;;
20040;SDS011;10181;48.072;9.884;2023-11-21T01:47:30;2.77;;;1.00;;
20040;SDS011;10181;48.072;9.884;2023-11-21T01:49:59;0.60;;;0.60;;
20040;SDS011;10181;48.072;9.884;2023-11-21T01:52:25;1.73;;;0.73;;
20040;SDS011;10181;48.072;9.884;2023-11-21T01:54:51;2.00;;;0.83;;
20040;SDS011;10181;48.072;9.884;2023-11-21T01:57:18;3.90;;;0.93;;
20040;SDS011;10181;48.072;9.884;2023-11-21T01:59:45;0.80;;;0.80;;
20040;SDS011;10181;48.072;9.884;2023-11-21T02:02:13;3.70;;;0.97;;
20040;SDS011;10181;48.072;9.884;2023-11-21T02:04:40;1.30;;;1.07;;
20040;SDS011;10181;48.072;9.884;2023-11-21T02:07:06;2.00;;;0.80;;
20040;SDS011;10181;48.072;9.884;2023-11-21T02:09:32;0.77;;;0.77;;
20040;SDS011;10181;48.072;9.884;2023-11-21T02:12:03;5.03;;;1.27;;
20040;SDS011;10181;48.072;9.884;2023-11-21T02:14:29;1.17;;;1.00;;
20040;SDS011;10181;48.072;9.884;2023-11-21T02:16:55;1.63;;;0.70;;
20040;SDS011;10181;48.072;9.884;2023-11-21T02:19:22;4.53;;;0.80;;
20040;SDS011;10181;48.072;9.884;2023-11-21T02:21:50;0.83;;;0.83;;
20040;SDS011;10181;48.072;9.884;2023-11-21T02:24:22;2.23;;;0.80;;
20040;SDS011;10181;48.072;9.884;2023-11-21T02:26:48;2.33;;;0.73;;
20040;SDS011;10181;48.072;9.884;2023-11-21T02:29:18;0.67;;;0.67;;
20040;SDS011;10181;48.072;9.884;2023-11-21T02:31:46;1.43;;;0.93;;
20040;SDS011;10181;48.072;9.884;2023-11-21T02:34:16;1.30;;;0.70;;
20040;SDS011;10181;48.072;9.884;2023-11-21T02:36:46;1.00;;;0.90;;
20040;SDS011;10181;48.072;9.884;2023-11-21T02:39:15;0.83;;;0.83;;
20040;SDS011;10181;48.072;9.884;2023-11-21T02:41:41;1.23;;;0.80;;
20040;SDS011;10181;48.072;9.884;2023-11-21T02:44:08;2.13;;;0.93;;
20040;SDS011;10181;48.072;9.884;2023-11-21T02:46:34;3.20;;;0.60;;
20040;SDS011;10181;48.072;9.884;2023-11-21T02:49:02;0.77;;;0.77;;
20040;SDS011;10181;48.072;9.884;2023-11-21T02:51:28;1.13;;;0.77;;
20040;SDS011;10181;48.072;9.884;2023-11-21T02:53:55;1.03;;;0.73;;
20040;SDS011;10181;48.072;9.884;2023-11-21T02:56:24;1.43;;;1.00;;
20040;SDS011;10181;48.072;9.884;2023-11-21T02:58:51;2.23;;;0.80;;
20040;SDS011;10181;48.072;9.884;2023-11-21T03:01:17;1.77;;;1.20;;
20040;SDS011;10181;48.072;9.884;2023-11-21T03:03:42;1.00;;;1.00;;
20040;SDS011;10181;48.072;9.884;2023-11-21T03:06:08;1.60;;;0.83;;
20040;SDS011;10181;48.072;9.884;2023-11-21T03:08:34;1.40;;;1.17;;
20040;SDS011;10181;48.072;9.884;2023-11-21T03:11:00;1.30;;;0.90;;
20040;SDS011;10181;48.072;9.884;2023-11-21T03:13:27;0.97;;;0.97;;
20040;SDS011;10181;48.072;9.884;2023-11-21T03:15:53;0.57;;;0.57;;
20040;SDS011;10181;48.072;9.884;2023-11-21T03:18:19;1.20;;;1.10;;
20040;SDS011;10181;48.072;9.884;2023-11-21T03:20:47;0.70;;;0.70;;
20040;SDS011;10181;48.072;9.884;2023-11-21T03:23:12;1.23;;;1.10;;
20040;SDS011;10181;48.072;9.884;2023-11-21T03:25:38;2.40;;;0.90;;
20040;SDS011;10181;48.072;9.884;2023-11-21T03:28:03;4.40;;;1.43;;
20040;SDS011;10181;48.072;9.884;2023-11-21T03:30:29;1.03;;;1.00;;
20040;SDS011;10181;48.072;9.884;2023-11-21T03:32:55;3.77;;;1.33;;
20040;SDS011;10181;48.072;9.884;2023-11-21T03:35:21;2.70;;;1.10;;
20040;SDS011;10181;48.072;9.884;2023-11-21T03:37:47;2.13;;;1.37;;
20040;SDS011;10181;48.072;9.884;2023-11-21T03:40:12;2.13;;;1.30;;
20040;SDS011;10181;48.072;9.884;2023-11-21T03:42:38;3.23;;;0.80;;
20040;SDS011;10181;48.072;9.884;2023-11-21T03:45:05;0.97;;;0.97;;
20040;SDS011;10181;48.072;9.884;2023-11-21T03:47:31;1.30;;;1.20;;
20040;SDS011;10181;48.072;9.884;2023-11-21T03:49:56;1.07;;;1.07;;
20040;SDS011;10181;48.072;9.884;2023-11-21T03:52:22;0.90;;;0.90;;
20040;SDS011;10181;48.072;9.884;2023-11-21T03:54:48;1.70;;;0.70;;
20040;SDS011;10181;48.072;9.884;2023-11-21T03:57:14;1.07;;;0.73;;
20040;SDS011;10181;48.072;9.884;2023-11-21T03:59:40;0.80;;;0.60;;
20040;SDS011;10181;48.072;9.884;2023-11-21T04:02:06;1.17;;;0.50;;
20040;SDS011;10181;48.072;9.884;2023-11-21T04:04:32;1.00;;;0.80;;
20040;SDS011;10181;48.072;9.884;2023-11-21T04:06:58;0.77;;;0.77;;
20040;SDS011;10181;48.072;9.884;2023-11-21T04:09:24;0.90;;;0.90;;
20040;SDS011;10181;48.072;9.884;2023-11-21T04:11:51;3.20;;;0.70;;
20040;SDS011;10181;48.072;9.884;2023-11-21T04:14:17;1.30;;;0.60;;
20040;SDS011;10181;48.072;9.884;2023-11-21T04:16:43;0.80;;;0.50;;
20040;SDS011;10181;48.072;9.884;2023-11-21T04:19:08;0.60;;;0.60;;
20040;SDS011;10181;48.072;9.884;2023-11-21T04:21:35;1.90;;;1.00;;
20040;SDS011;10181;48.072;9.884;2023-11-21T04:24:01;0.50;;;0.50;;
20040;SDS011;10181;48.072;9.884;2023-11-21T04:26:27;1.13;;;0.73;;
20040;SDS011;10181;48.072;9.884;2023-11-21T04:28:52;0.83;;;0.83;;
20040;SDS011;10181;48.072;9.884;2023-11-21T04:31:18;0.70;;;0.70;;
20040;SDS011;10181;48.072;9.884;2023-11-21T04:33:44;0.60;;;0.60;;
20040;SDS011;10181;48.072;9.884;2023-11-21T04:36:09;0.97;;;0.80;;
20040;SDS011;10181;48.072;9.884;2023-11-21T04:38:35;1.37;;;0.90;;
20040;SDS011;10181;48.072;9.884;2023-11-21T04:41:01;0.60;;;0.60;;
20040;SDS011;10181;48.072;9.884;2023-11-21T04:43:27;0.93;;;0.83;;
20040;SDS011;10181;48.072;9.884;2023-11-21T04:45:52;0.60;;;0.60;;
20040;SDS011;10181;48.072;9.884;2023-11-21T04:48:19;2.53;;;0.80;;
20040;SDS011;10181;48.072;9.884;2023-11-21T04:50:45;4.17;;;0.60;;
20040;SDS011;10181;48.072;9.884;2023-11-21T04:53:10;0.40;;;0.40;;
20040;SDS011;10181;48.072;9.884;2023-11-21T04:55:39;0.60;;;0.60;;
20040;SDS011;10181;48.072;9.884;2023-11-21T04:58:08;0.77;;;0.50;;
20040;SDS011;10181;48.072;9.884;2023-11-21T05:00:34;0.53;;;0.53;;
20040;SDS011;10181;48.072;9.884;2023-11-21T05:03:01;0.40;;;0.40;;
20040;SDS011;10181;48.072;9.884;2023-11-21T05:05:28;2.00;;;0.60;;
20040;SDS011;10181;48.072;9.884;2023-11-21T05:07:54;23.20;;;11.40;;
20040;SDS011;10181;48.072;9.884;2023-11-21T05:10:20;26.67;;;13.57;;
20040;SDS011;10181;48.072;9.884;2023-11-21T05:12:47;361.93;;;144.23;;
20040;SDS011;10181;48.072;9.884;2023-11-21T05:15:15;440.50;;;148.17;;
20040;SDS011;10181;48.072;9.884;2023-11-21T05:17:42;168.20;;;67.07;;
20040;SDS011;10181;48.072;9.884;2023-11-21T05:20:26;246.43;;;98.10;;
20040;SDS011;10181;48.072;9.884;2023-11-21T05:22:52;206.60;;;101.07;;
20040;SDS011;10181;48.072;9.884;2023-11-21T05:25:18;55.23;;;31.17;;
20040;SDS011;10181;48.072;9.884;2023-11-21T05:27:44;19.67;;;14.33;;
20040;SDS011;10181;48.072;9.884;2023-11-21T05:30:11;6.70;;;6.03;;
20040;SDS011;10181;48.072;9.884;2023-11-21T05:32:37;2.10;;;2.00;;
20040;SDS011;10181;48.072;9.884;2023-11-21T05:35:03;1.83;;;1.77;;
20040;SDS011;10181;48.072;9.884;2023-11-21T05:37:34;1.40;;;1.30;;
20040;SDS011;10181;48.072;9.884;2023-11-21T05:40:01;1.23;;;1.23;;
20040;SDS011;10181;48.072;9.884;2023-11-21T05:42:31;2.83;;;1.93;;
20040;SDS011;10181;48.072;9.884;2023-11-21T05:45:00;3.37;;;1.60;;
20040;SDS011;10181;48.072;9.884;2023-11-21T05:47:35;2.67;;;2.10;;
20040;SDS011;10181;48.072;9.884;2023-11-21T05:50:05;1.13;;;1.13;;
20040;SDS011;10181;48.072;9.884;2023-11-21T05:52:35;2.17;;;1.60;;
20040;SDS011;10181;48.072;9.884;2023-11-21T05:55:02;1.50;;;1.50;;
20040;SDS011;10181;48.072;9.884;2023-11-21T05:57:29;1.63;;;1.53;;
20040;SDS011;10181;48.072;9.884;2023-11-21T05:59:55;1.20;;;1.20;;
20040;SDS011;10181;48.072;9.884;2023-11-21T06:02:21;4.00;;;1.80;;
20040;SDS011;10181;48.072;9.884;2023-11-21T06:04:46;1.00;;;1.00;;
20040;SDS011;10181;48.072;9.884;2023-11-21T06:07:12;1.27;;;1.27;;
20040;SDS011;10181;48.072;9.884;2023-11-21T06:09:38;1.50;;;1.37;;
20040;SDS011;10181;48.072;9.884;2023-11-21T06:12:03;1.20;;;1.20;;
20040;SDS011;10181;48.072;9.884;2023-11-21T06:14:29;1.33;;;1.33;;
20040;SDS011;10181;48.072;9.884;2023-11-21T06:16:55;3.00;;;1.33;;
20040;SDS011;10181;48.072;9.884;2023-11-21T06:19:22;0.57;;;0.57;;
20040;SDS011;10181;48.072;9.884;2023-11-21T06:21:48;1.17;;;1.07;;
20040;SDS011;10181;48.072;9.884;2023-11-21T06:24:13;0.70;;;0.70;;
20040;SDS011;10181;48.072;9.884;2023-11-21T06:26:40;2.73;;;0.97;;
20040;SDS011;10181;48.072;9.884;2023-11-21T06:29:06;1.00;;;1.00;;
20040;SDS011;10181;48.072;9.884;2023-11-21T06:31:32;1.57;;;1.17;;
20040;SDS011;10181;48.072;9.884;2023-11-21T06:33:58;1.10;;;1.10;;
20040;SDS011;10181;48.072;9.884;2023-11-21T06:36:24;1.33;;;1.07;;
20040;SDS011;10181;48.072;9.884;2023-11-21T06:38:51;0.93;;;0.90;;
20040;SDS011;10181;48.072;9.884;2023-11-21T06:41:17;1.53;;;1.00;;
20040;SDS011;10181;48.072;9.884;2023-11-21T06:43:43;0.90;;;0.90;;
20040;SDS011;10181;48.072;9.884;2023-11-21T06:46:12;0.80;;;0.67;;
20040;SDS011;10181;48.072;9.884;2023-11-21T06:48:40;0.80;;;0.80;;
20040;SDS011;10181;48.072;9.884;2023-11-21T06:51:07;2.13;;;0.80;;
20040;SDS011;10181;48.072;9.884;2023-11-21T06:53:33;1.03;;;0.77;;
20040;SDS011;10181;48.072;9.884;2023-11-21T06:55:59;0.70;;;0.70;;
20040;SDS011;10181;48.072;9.884;2023-11-21T06:58:24;0.73;;;0.60;;
20040;SDS011;10181;48.072;9.884;2023-11-21T07:00:50;0.90;;;0.90;;
20040;SDS011;10181;48.072;9.884;2023-11-21T07:03:17;0.83;;;0.77;;
20040;SDS011;10181;48.072;9.884;2023-11-21T07:05:44;0.70;;;0.70;;
20040;SDS011;10181;48.072;9.884;2023-11-21T07:08:10;0.90;;;0.90;;
20040;SDS011;10181;48.072;9.884;2023-11-21T07:10:35;2.40;;;0.87;;
20040;SDS011;10181;48.072;9.884;2023-11-21T07:13:01;1.03;;;1.00;;
20040;SDS011;10181;48.072;9.884;2023-11-21T07:15:27;1.17;;;1.00;;
20040;SDS011;10181;48.072;9.884;2023-11-21T07:17:53;1.27;;;1.17;;
20040;SDS011;10181;48.072;9.884;2023-11-21T07:20:19;1.33;;;1.10;;
20040;SDS011;10181;48.072;9.884;2023-11-21T07:22:45;1.20;;;1.20;;
20040;SDS011;10181;48.072;9.884;2023-11-21T07:25:10;1.23;;;0.87;;
20040;SDS011;10181;48.072;9.884;2023-11-21T07:27:37;1.20;;;1.10;;
20040;SDS011;10181;48.072;9.884;2023-11-21T07:30:02;1.50;;;1.13;;
20040;SDS011;10181;48.072;9.884;2023-11-21T07:32:30;1.40;;;0.90;;
20040;SDS011;10181;48.072;9.884;2023-11-21T07:34:56;1.93;;;1.10;;
20040;SDS011;10181;48.072;9.884;2023-11-21T07:37:23;2.37;;;1.43;;
20040;SDS011;10181;48.072;9.884;2023-11-21T07:39:48;1.53;;;1.00;;
20040;SDS011;10181;48.072;9.884;2023-11-21T07:42:14;0.90;;;0.90;;
20040;SDS011;10181;48.072;9.884;2023-11-21T07:44:40;1.43;;;1.33;;
20040;SDS011;10181;48.072;9.884;2023-11-21T07:47:06;3.90;;;1.13;;
20040;SDS011;10181;48.072;9.884;2023-11-21T07:49:31;1.00;;;1.00;;
20040;SDS011;10181;48.072;9.884;2023-11-21T07:51:57;1.57;;;1.47;;
20040;SDS011;10181;48.072;9.884;2023-11-21T07:54:22;1.37;;;1.07;;
20040;SDS011;10181;48.072;9.884;2023-11-21T07:56:48;0.70;;;0.70;;
20040;SDS011;10181;48.072;9.884;2023-11-21T07:59:14;1.33;;;0.93;;
20040;SDS011;10181;48.072;9.884;2023-11-21T08:01:39;1.03;;;1.03;;
20040;SDS011;10181;48.072;9.884;2023-11-21T08:04:05;1.83;;;1.20;;
20040;SDS011;10181;48.072;9.884;2023-11-21T08:06:31;2.53;;;1.83;;
20040;SDS011;10181;48.072;9.884;2023-11-21T08:08:57;1.63;;;1.33;;
20040;SDS011;10181;48.072;9.884;2023-11-21T08:11:24;0.87;;;0.70;;
20040;SDS011;10181;48.072;9.884;2023-11-21T08:13:49;1.37;;;0.90;;
20040;SDS011;10181;48.072;9.884;2023-11-21T08:16:15;0.80;;;0.80;;
20040;SDS011;10181;48.072;9.884;2023-11-21T08:18:41;1.03;;;1.03;;
20040;SDS011;10181;48.072;9.884;2023-11-21T08:21:07;1.20;;;1.20;;
20040;SDS011;10181;48.072;9.884;2023-11-21T08:23:33;1.23;;;1.00;;
20040;SDS011;10181;48.072;9.884;2023-11-21T08:25:59;0.97;;;0.90;;
20040;SDS011;10181;48.072;9.884;2023-11-21T08:28:25;2.93;;;1.17;;
20040;SDS011;10181;48.072;9.884;2023-11-21T08:30:53;1.10;;;1.00;;
20040;SDS011;10181;48.072;9.884;2023-11-21T08:33:21;0.90;;;0.90;;
20040;SDS011;10181;48.072;9.884;2023-11-21T08:35:47;0.80;;;0.80;;
20040;SDS011;10181;48.072;9.884;2023-11-21T08:38:13;1.00;;;1.00;;
20040;SDS011;10181;48.072;9.884;2023-11-21T08:40:39;1.23;;;1.00;;
20040;SDS011;10181;48.072;9.884;2023-11-21T08:43:05;1.93;;;1.10;;
20040;SDS011;10181;48.072;9.884;2023-11-21T08:45:32;3.03;;;1.33;;
20040;SDS011;10181;48.072;9.884;2023-11-21T08:47:59;0.90;;;0.90;;
20040;SDS011;10181;48.072;9.884;2023-11-21T08:50:26;1.37;;;1.27;;
20040;SDS011;10181;48.072;9.884;2023-11-21T08:52:51;1.10;;;1.10;;
20040;SDS011;10181;48.072;9.884;2023-11-21T08:55:17;1.13;;;1.13;;
20040;SDS011;10181;48.072;9.884;2023-11-21T08:57:44;1.73;;;1.50;;
20040;SDS011;10181;48.072;9.884;2023-11-21T09:00:11;3.93;;;1.60;;
20040;SDS011;10181;48.072;9.884;2023-11-21T09:02:40;1.37;;;1.27;;
20040;SDS011;10181;48.072;9.884;2023-11-21T09:05:07;1.20;;;1.10;;
20040;SDS011;10181;48.072;9.884;2023-11-21T09:07:36;1.20;;;1.20;;
20040;SDS011;10181;48.072;9.884;2023-11-21T09:10:03;1.23;;;1.20;;
20040;SDS011;10181;48.072;9.884;2023-11-21T09:12:32;1.97;;;1.37;;
20040;SDS011;10181;48.072;9.884;2023-11-21T09:15:00;1.30;;;1.30;;
20040;SDS011;10181;48.072;9.884;2023-11-21T09:17:27;1.10;;;1.00;;
20040;SDS011;10181;48.072;9.884;2023-11-21T09:19:53;1.43;;;1.37;;
20040;SDS011;10181;48.072;9.884;2023-11-21T09:22:18;1.10;;;1.10;;
20040;SDS011;10181;48.072;9.884;2023-11-21T09:24:44;3.40;;;1.70;;
20040;SDS011;10181;48.072;9.884;2023-11-21T09:27:10;1.53;;;1.47;;
20040;SDS011;10181;48.072;9.884;2023-11-21T09:29:36;3.13;;;1.23;;
20040;SDS011;10181;48.072;9.884;2023-11-21T09:32:05;1.27;;;1.27;;
20040;SDS011;10181;48.072;9.884;2023-11-21T09:34:33;2.00;;;1.53;;
20040;SDS011;10181;48.072;9.884;2023-11-21T09:37:04;1.23;;;1.13;;
20040;SDS011;10181;48.072;9.884;2023-11-21T09:39:31;1.60;;;1.50;;
20040;SDS011;10181;48.072;9.884;2023-11-21T09:42:02;2.30;;;1.43;;
20040;SDS011;10181;48.072;9.884;2023-11-21T09:44:35;1.67;;;1.57;;
20040;SDS011;10181;48.072;9.884;2023-11-21T09:47:23;1.97;;;1.73;;
20040;SDS011;10181;48.072;9.884;2023-11-21T09:49:49;1.37;;;1.27;;
20040;SDS011;10181;48.072;9.884;2023-11-21T09:52:26;2.17;;;1.60;;
20040;SDS011;10181;48.072;9.884;2023-11-21T09:54:53;2.23;;;1.33;;
20040;SDS011;10181;48.072;9.884;2023-11-21T09:57:20;1.83;;;1.63;;
20040;SDS011;10181;48.072;9.884;2023-11-21T09:59:52;2.83;;;1.57;;
20040;SDS011;10181;48.072;9.884;2023-11-21T10:02:26;1.50;;;1.50;;
20040;SDS011;10181;48.072;9.884;2023-11-21T10:04:55;1.70;;;1.60;;
20040;SDS011;10181;48.072;9.884;2023-11-21T10:07:21;3.30;;;1.70;;
20040;SDS011;10181;48.072;9.884;2023-11-21T10:09:48;1.40;;;1.27;;
20040;SDS011;10181;48.072;9.884;2023-11-21T10:12:16;1.63;;;1.53;;
20040;SDS011;10181;48.072;9.884;2023-11-21T10:14:42;1.57;;;1.47;;
20040;SDS011;10181;48.072;9.884;2023-11-21T10:17:12;1.23;;;1.13;;
20040;SDS011;10181;48.072;9.884;2023-11-21T10:19:41;1.13;;;1.13;;
20040;SDS011;10181;48.072;9.884;2023-11-21T10:22:07;1.13;;;1.13;;
20040;SDS011;10181;48.072;9.884;2023-11-21T10:24:33;1.10;;;1.10;;
20040;SDS011;10181;48.072;9.884;2023-11-21T10:26:59;0.93;;;0.93;;
20040;SDS011;10181;48.072;9.884;2023-11-21T10:29:28;1.43;;;1.37;;
20040;SDS011;10181;48.072;9.884;2023-11-21T10:31:55;1.33;;;1.23;;
20040;SDS011;10181;48.072;9.884;2023-11-21T10:34:23;1.07;;;1.07;;
20040;SDS011;10181;48.072;9.884;2023-11-21T10:36:49;1.20;;;1.10;;
20040;SDS011;10181;48.072;9.884;2023-11-21T10:39:24;1.17;;;1.13;;
20040;SDS011;10181;48.072;9.884;2023-11-21T10:41:55;1.77;;;1.10;;
20040;SDS011;10181;48.072;9.884;2023-11-21T10:44:21;1.10;;;1.00;;
20040;SDS011;10181;48.072;9.884;2023-11-21T10:46:52;1.00;;;1.00;;
20040;SDS011;10181;48.072;9.884;2023-11-21T10:49:25;1.10;;;1.10;;
20040;SDS011;10181;48.072;9.884;2023-11-21T10:51:52;2.97;;;0.90;;
20040;SDS011;10181;48.072;9.884;2023-11-21T10:54:22;1.10;;;0.90;;
20040;SDS011;10181;48.072;9.884;2023-11-21T10:56:50;1.10;;;1.10;;
20040;SDS011;10181;48.072;9.884;2023-11-21T10:59:22;1.00;;;1.00;;
20040;SDS011;10181;48.072;9.884;2023-11-21T11:01:50;0.70;;;0.70;;
20040;SDS011;10181;48.072;9.884;2023-11-21T11:04:20;0.70;;;0.70;;
20040;SDS011;10181;48.072;9.884;2023-11-21T11:07:01;1.73;;;0.70;;
20040;SDS011;10181;48.072;9.884;2023-11-21T11:09:28;0.80;;;0.80;;
20040;SDS011;10181;48.072;9.884;2023-11-21T11:11:58;1.20;;;1.10;;
20040;SDS011;10181;48.072;9.884;2023-11-21T11:14:24;0.90;;;0.90;;
20040;SDS011;10181;48.072;9.884;2023-11-21T11:16:52;0.87;;;0.87;;
20040;SDS011;10181;48.072;9.884;2023-11-21T11:19:19;0.87;;;0.87;;
20040;SDS011;10181;48.072;9.884;2023-11-21T11:21:48;0.83;;;0.83;;
20040;SDS011;10181;48.072;9.884;2023-11-21T11:27:26;1.17;;;0.90;;
20040;SDS011;10181;48.072;9.884;2023-11-21T11:39:03;0.70;;;0.70;;
20040;SDS011;10181;48.072;9.884;2023-11-21T11:41:48;1.03;;;0.97;;
20040;SDS011;10181;48.072;9.884;2023-11-21T11:47:28;0.70;;;0.70;;
20040;SDS011;10181;48.072;9.884;2023-11-21T11:52:38;3.30;;;0.67;;
20040;SDS011;10181;48.072;9.884;2023-11-21T11:55:06;0.90;;;0.80;;
20040;SDS011;10181;48.072;9.884;2023-11-21T11:57:35;0.80;;;0.80;;
20040;SDS011;10181;48.072;9.884;2023-11-21T12:02:58;1.80;;;0.97;;
20040;SDS011;10181;48.072;9.884;2023-11-21T12:05:27;0.80;;;0.80;;
20040;SDS011;10181;48.072;9.884;2023-11-21T12:07:54;0.63;;;0.63;;
20040;SDS011;10181;48.072;9.884;2023-11-21T12:10:26;1.00;;;1.00;;
20040;SDS011;10181;48.072;9.884;2023-11-21T12:13:14;0.70;;;0.70;;
20040;SDS011;10181;48.072;9.884;2023-11-21T12:15:38;0.73;;;0.70;;
20040;SDS011;10181;48.072;9.884;2023-11-21T12:18:06;0.70;;;0.70;;
20040;SDS011;10181;48.072;9.884;2023-11-21T12:20:32;0.70;;;0.70;;
20040;SDS011;10181;48.072;9.884;2023-11-21T12:23:03;0.63;;;0.63;;
20040;SDS011;10181;48.072;9.884;2023-11-21T12:25:30;0.50;;;0.50;;
20040;SDS011;10181;48.072;9.884;2023-11-21T12:28:02;0.60;;;0.60;;
20040;SDS011;10181;48.072;9.884;2023-11-21T12:30:31;0.50;;;0.50;;
20040;SDS011;10181;48.072;9.884;2023-11-21T12:33:01;0.60;;;0.53;;
20040;SDS011;10181;48.072;9.884;2023-11-21T12:35:28;1.10;;;1.07;;
20040;SDS011;10181;48.072;9.884;2023-11-21T12:37:55;0.50;;;0.50;;
20040;SDS011;10181;48.072;9.884;2023-11-21T12:40:24;0.80;;;0.80;;
20040;SDS011;10181;48.072;9.884;2023-11-21T12:42:57;0.77;;;0.77;;
20040;SDS011;10181;48.072;9.884;2023-11-21T12:45:24;0.80;;;0.80;;
20040;SDS011;10181;48.072;9.884;2023-11-21T12:47:54;0.90;;;0.80;;
20040;SDS011;10181;48.072;9.884;2023-11-21T12:50:24;0.60;;;0.60;;
20040;SDS011;10181;48.072;9.884;2023-11-21T12:52:55;0.60;;;0.60;;
20040;SDS011;10181;48.072;9.884;2023-11-21T12:55:24;0.67;;;0.67;;
20040;SDS011;10181;48.072;9.884;2023-11-21T12:57:52;1.00;;;0.50;;
20040;SDS011;10181;48.072;9.884;2023-11-21T13:00:30;0.77;;;0.60;;
20040;SDS011;10181;48.072;9.884;2023-11-21T13:02:59;0.50;;;0.50;;
20040;SDS011;10181;48.072;9.884;2023-11-21T13:05:28;0.77;;;0.77;;
20040;SDS011;10181;48.072;9.884;2023-11-21T13:07:58;0.80;;;0.80;;
20040;SDS011;10181;48.072;9.884;2023-11-21T13:10:28;1.00;;;0.90;;
20040;SDS011;10181;48.072;9.884;2023-11-21T13:12:59;0.60;;;0.60;;
20040;SDS011;10181;48.072;9.884;2023-11-21T13:15:30;0.87;;;0.60;;
20040;SDS011;10181;48.072;9.884;2023-11-21T13:17:58;0.23;;;0.23;;
20040;SDS011;10181;48.072;9.884;2023-11-21T13:20:27;0.30;;;0.30;;
20040;SDS011;10181;48.072;9.884;2023-11-21T13:22:53;0.23;;;0.23;;
20040;SDS011;10181;48.072;9.884;2023-11-21T13:25:28;0.23;;;0.23;;
20040;SDS011;10181;48.072;9.884;2023-11-21T13:27:54;0.30;;;0.30;;
20040;SDS011;10181;48.072;9.884;2023-11-21T13:30:21;0.30;;;0.30;;
20040;SDS011;10181;48.072;9.884;2023-11-21T13:32:51;0.20;;;0.20;;
20040;SDS011;10181;48.072;9.884;2023-11-21T13:35:27;0.40;;;0.40;;
20040;SDS011;10181;48.072;9.884;2023-11-21T13:38:06;0.60;;;0.60;;
20040;SDS011;10181;48.072;9.884;2023-11-21T13:40:34;0.60;;;0.60;;
20040;SDS011;10181;48.072;9.884;2023-11-21T13:43:05;0.53;;;0.53;;
20040;SDS011;10181;48.072;9.884;2023-11-21T13:45:34;0.80;;;0.80;;
20040;SDS011;10181;48.072;9.884;2023-11-21T13:48:01;0.63;;;0.63;;
20040;SDS011;10181;48.072;9.884;2023-11-21T13:50:27;1.30;;;1.30;;
20040;SDS011;10181;48.072;9.884;2023-11-21T13:53:00;0.67;;;0.67;;
20040;SDS011;10181;48.072;9.884;2023-11-21T13:55:47;0.53;;;0.53;;
20040;SDS011;10181;48.072;9.884;2023-11-21T13:58:19;0.80;;;0.80;;
20040;SDS011;10181;48.072;9.884;2023-11-21T14:00:51;0.60;;;0.60;;
20040;SDS011;10181;48.072;9.884;2023-11-21T14:03:22;0.40;;;0.40;;
20040;SDS011;10181;48.072;9.884;2023-11-21T14:05:57;0.30;;;0.30;;
20040;SDS011;10181;48.072;9.884;2023-11-21T14:08:25;0.53;;;0.40;;
20040;SDS011;10181;48.072;9.884;2023-11-21T14:10:56;0.27;;;0.27;;
20040;SDS011;10181;48.072;9.884;2023-11-21T14:13:22;0.27;;;0.27;;
20040;SDS011;10181;48.072;9.884;2023-11-21T14:15:49;0.23;;;0.23;;
20040;SDS011;10181;48.072;9.884;2023-11-21T14:18:22;0.27;;;0.27;;
20040;SDS011;10181;48.072;9.884;2023-11-21T14:21:03;0.30;;;0.30;;
20040;SDS011;10181;48.072;9.884;2023-11-21T14:23:30;0.17;;;0.17;;
20040;SDS011;10181;48.072;9.884;2023-11-21T14:25:58;0.20;;;0.20;;
20040;SDS011;10181;48.072;9.884;2023-11-21T14:28:26;0.30;;;0.30;;
20040;SDS011;10181;48.072;9.884;2023-11-21T14:30:51;0.10;;;0.10;;
20040;SDS011;10181;48.072;9.884;2023-11-21T14:33:17;0.50;;;0.50;;
20040;SDS011;10181;48.072;9.884;2023-11-21T14:35:43;0.70;;;0.70;;
20040;SDS011;10181;48.072;9.884;2023-11-21T14:38:09;1.80;;;1.70;;
20040;SDS011;10181;48.072;9.884;2023-11-21T14:40:35;1.87;;;1.77;;
20040;SDS011;10181;48.072;9.884;2023-11-21T14:43:04;3.67;;;2.47;;
20040;SDS011;10181;48.072;9.884;2023-11-21T14:45:33;2.00;;;1.90;;
20040;SDS011;10181;48.072;9.884;2023-11-21T14:47:59;1.83;;;1.73;;
20040;SDS011;10181;48.072;9.884;2023-11-21T14:50:40;1.77;;;1.67;;
20040;SDS011;10181;48.072;9.884;2023-11-21T14:53:06;1.47;;;1.37;;
20040;SDS011;10181;48.072;9.884;2023-11-21T14:55:33;1.70;;;1.60;;
20040;SDS011;10181;48.072;9.884;2023-11-21T14:58:17;1.63;;;1.53;;
20040;SDS011;10181;48.072;9.884;2023-11-21T15:00:52;1.27;;;1.27;;
20040;SDS011;10181;48.072;9.884;2023-11-21T15:03:25;0.80;;;0.80;;
20040;SDS011;10181;48.072;9.884;2023-11-21T15:06:01;1.30;;;1.20;;
20040;SDS011;10181;48.072;9.884;2023-11-21T15:08:49;2.27;;;1.20;;
20040;SDS011;10181;48.072;9.884;2023-11-21T15:11:25;0.73;;;0.73;;